Time;durP1;ratioP1;P1;durP2;ratioP2;P2;SDS_P1;SDS_P2;PMS_P1;PMS_P2;Temp;Humidity;BMP_temperature;BMP_pressure;BME280_temperature;BME280_humidity;BME280_pressure;Samples;Min_cycle;Max_cycle;Signal;HPM_P1;HPM_P2
2023/02/26 00:00:47;;;;;;;9.35;5.53;;;9.60;66.00;;;;;;5022195;28;20064;-84
2023/02/26 00:03:13;;;;;;;8.23;4.82;;;9.60;65.90;;;;;;5021765;28;20037;-87
2023/02/26 00:05:39;;;;;;;7.60;4.65;;;9.60;65.80;;;;;;5021288;28;20408;-82
2023/02/26 00:08:05;;;;;;;8.25;5.40;;;9.60;65.60;;;;;;5022318;28;20037;-81
2023/02/26 00:10:31;;;;;;;7.00;4.97;;;9.70;65.50;;;;;;5024100;28;20025;-87
2023/02/26 00:12:57;;;;;;;7.22;5.18;;;9.70;65.40;;;;;;5021710;28;20172;-85
2023/02/26 00:15:23;;;;;;;8.27;5.25;;;9.70;65.30;;;;;;5025508;28;20867;-83
2023/02/26 00:18:09;;;;;;;6.70;4.95;;;9.80;65.10;;;;;;5024141;28;20036;-86
2023/02/26 00:20:36;;;;;;;6.72;4.75;;;9.80;65.00;;;;;;5031685;28;20041;-85
2023/02/26 00:23:02;;;;;;;7.03;5.03;;;9.80;64.90;;;;;;5024223;28;20029;-83
2023/02/26 00:25:28;;;;;;;6.70;4.78;;;9.90;65.00;;;;;;5022237;28;20180;-83
2023/02/26 00:27:55;;;;;;;7.22;5.00;;;9.90;65.00;;;;;;5056241;28;20092;-81
2023/02/26 00:30:21;;;;;;;6.75;4.70;;;9.90;65.00;;;;;;5023831;28;20033;-82
2023/02/26 00:32:47;;;;;;;7.68;5.15;;;9.90;65.00;;;;;;5023356;28;20033;-82
2023/02/26 00:35:15;;;;;;;7.97;5.15;;;10.00;64.80;;;;;;5023867;28;20111;-83
2023/02/26 00:38:02;;;;;;;5.72;4.15;;;10.00;64.90;;;;;;5006758;28;20044;-83
2023/02/26 00:40:42;;;;;;;6.13;4.30;;;10.00;64.60;;;;;;5004363;28;20695;-84
2023/02/26 00:43:14;;;;;;;6.00;4.50;;;10.00;64.60;;;;;;5022779;28;20038;-85
2023/02/26 00:46:05;;;;;;;7.60;4.95;;;10.00;64.40;;;;;;5021659;28;20045;-83
2023/02/26 00:48:54;;;;;;;7.13;4.57;;;10.10;64.50;;;;;;5028745;28;20067;-85
2023/02/26 00:51:52;;;;;;;6.63;4.63;;;10.10;64.40;;;;;;5021184;28;20420;-80
2023/02/26 00:54:24;;;;;;;7.45;4.78;;;10.10;64.20;;;;;;5015608;28;20038;-84
2023/02/26 00:56:52;;;;;;;6.85;5.05;;;10.10;64.20;;;;;;5019023;28;20034;-84
2023/02/26 00:59:18;;;;;;;5.78;4.32;;;10.10;64.40;;;;;;5052679;28;20041;-84
2023/02/26 01:01:45;;;;;;;7.43;4.75;;;10.20;64.50;;;;;;5019537;28;20017;-83
2023/02/26 01:04:13;;;;;;;7.35;4.45;;;10.20;64.50;;;;;;5023226;28;20091;-84
2023/02/26 01:06:47;;;;;;;6.85;4.70;;;10.20;64.50;;;;;;5008240;28;20070;-83
2023/02/26 01:09:34;;;;;;;5.38;4.05;;;10.20;64.50;;;;;;5019844;28;20036;-85
2023/02/26 01:12:06;;;;;;;4.70;4.05;;;10.30;64.50;;;;;;5022928;28;20614;-84
2023/02/26 01:14:32;;;;;;;5.15;4.28;;;10.30;64.50;;;;;;5036201;28;20120;-85
2023/02/26 01:17:28;;;;;;;5.97;4.18;;;10.30;64.50;;;;;;5019324;28;20203;-84
2023/02/26 01:19:54;;;;;;;5.25;3.80;;;10.30;64.40;;;;;;5035759;28;20044;-89
2023/02/26 01:22:38;;;;;;;5.25;3.58;;;10.30;64.40;;;;;;5008279;28;20037;-82
2023/02/26 01:25:07;;;;;;;4.53;3.47;;;10.40;64.30;;;;;;5024883;28;20037;-85
2023/02/26 01:27:34;;;;;;;6.43;3.80;;;10.40;64.30;;;;;;5019004;28;20041;-85
2023/02/26 01:30:00;;;;;;;5.00;4.13;;;10.40;64.20;;;;;;5023341;28;20132;-79
2023/02/26 01:33:10;;;;;;;4.28;3.40;;;10.40;64.10;;;;;;5023603;28;20044;-86
2023/02/26 01:35:43;;;;;;;3.47;3.08;;;10.40;63.90;;;;;;5002387;28;20034;-87
2023/02/26 01:38:34;;;;;;;2.83;2.60;;;10.40;63.70;;;;;;5037119;28;20038;-88
2023/02/26 01:41:06;;;;;;;4.38;2.88;;;10.40;63.70;;;;;;5051641;28;20144;-83
2023/02/26 01:43:43;;;;;;;3.67;2.72;;;10.40;63.60;;;;;;5020331;28;20064;-85
2023/02/26 01:46:22;;;;;;;3.42;2.67;;;10.40;63.80;;;;;;5026150;28;20491;-87
2023/02/26 01:48:54;;;;;;;3.28;2.70;;;10.40;63.90;;;;;;5035975;28;20038;-86
2023/02/26 01:51:53;;;;;;;3.08;2.47;;;10.50;63.90;;;;;;5019919;28;20041;-82
2023/02/26 01:54:23;;;;;;;3.60;2.63;;;10.50;63.80;;;;;;5019504;28;21637;-84
2023/02/26 01:57:03;;;;;;;2.35;2.10;;;10.50;63.80;;;;;;5023915;28;20037;-88
2023/02/26 01:59:32;;;;;;;3.40;2.42;;;10.50;63.70;;;;;;5003844;28;20057;-88
2023/02/26 02:02:01;;;;;;;5.15;2.40;;;10.50;63.60;;;;;;5056777;28;20072;-90
2023/02/26 02:04:29;;;;;;;2.85;2.28;;;10.50;63.40;;;;;;5034469;28;20397;-88
2023/02/26 02:06:55;;;;;;;2.70;2.00;;;10.50;63.60;;;;;;5019545;28;20065;-88
2023/02/26 02:09:21;;;;;;;2.85;2.53;;;10.60;63.40;;;;;;5018835;28;20040;-87
2023/02/26 02:12:03;;;;;;;2.25;2.03;;;10.60;63.40;;;;;;5021825;28;20029;-89
2023/02/26 02:14:47;;;;;;;2.42;2.10;;;10.50;63.10;;;;;;5034928;28;20041;-88
2023/02/26 02:17:24;;;;;;;2.72;2.17;;;10.60;63.40;;;;;;5049763;28;20463;-84
2023/02/26 02:20:05;;;;;;;1.92;1.70;;;10.60;63.60;;;;;;5039617;28;20037;-84
2023/02/26 02:22:40;;;;;;;2.55;2.22;;;10.60;63.70;;;;;;5033905;28;20042;-82
2023/02/26 02:25:34;;;;;;;2.42;1.83;;;10.60;63.70;;;;;;5050852;28;20128;-86
2023/02/26 02:28:39;;;;;;;3.25;2.35;;;10.60;63.70;;;;;;5003575;28;20038;-82
2023/02/26 02:31:17;;;;;;;2.38;2.17;;;10.60;63.60;;;;;;5017171;28;20133;-84
2023/02/26 02:34:22;;;;;;;2.35;2.15;;;10.60;63.80;;;;;;5033757;28;20512;-79
2023/02/26 02:36:52;;;;;;;2.67;2.22;;;10.60;63.80;;;;;;4998958;28;20064;-84
2023/02/26 02:39:59;;;;;;;3.15;2.55;;;10.60;63.60;;;;;;5020847;28;20037;-84
2023/02/26 02:42:34;;;;;;;;;;;10.70;63.70;;;;;;4972448;28;20125;-84
2023/02/26 02:45:11;;;;;;;3.13;2.33;;;10.70;63.50;;;;;;4964326;28;21442;-80
2023/02/26 02:47:41;;;;;;;2.28;1.95;;;10.70;63.30;;;;;;4964470;28;20042;-85
2023/02/26 02:50:27;;;;;;;2.20;1.90;;;10.70;63.40;;;;;;4972244;28;20031;-84
2023/02/26 02:53:29;;;;;;;3.05;2.20;;;10.70;63.60;;;;;;4972668;28;20082;-85
2023/02/26 02:56:06;;;;;;;2.10;1.85;;;10.70;63.40;;;;;;4927277;29;20043;-83
2023/02/26 02:58:38;;;;;;;2.95;1.77;;;10.70;63.30;;;;;;4945204;29;20180;-91
2023/02/26 03:01:12;;;;;;;2.05;1.73;;;10.70;63.30;;;;;;4928724;29;20414;-88
2023/02/26 03:03:49;;;;;;;2.50;1.85;;;10.70;63.40;;;;;;4929215;29;20071;-90
2023/02/26 03:06:16;;;;;;;1.63;1.52;;;10.70;63.50;;;;;;4944151;29;20102;-87
2023/02/26 03:08:44;;;;;;;2.03;1.65;;;10.70;63.50;;;;;;4928048;29;20035;-90
2023/02/26 03:11:10;;;;;;;1.70;1.60;;;10.70;63.50;;;;;;4928740;29;20054;-89
2023/02/26 03:13:38;;;;;;;2.55;1.80;;;10.70;63.40;;;;;;4940885;29;20031;-90
2023/02/26 03:16:22;;;;;;;3.05;1.58;;;10.80;63.40;;;;;;4906517;29;20039;-90
2023/02/26 03:19:13;;;;;;;1.67;1.58;;;10.80;63.30;;;;;;4966310;28;20089;-91
2023/02/26 03:21:56;;;;;;;1.38;1.27;;;10.80;63.10;;;;;;4970797;28;20261;-86
2023/02/26 03:25:00;;;;;;;1.45;1.27;;;10.80;63.10;;;;;;4968123;28;20099;-83
2023/02/26 03:27:34;;;;;;;1.50;1.40;;;10.80;63.10;;;;;;4970282;28;20104;-91
2023/02/26 03:30:06;;;;;;;1.40;1.30;;;10.80;63.00;;;;;;4973581;28;21086;-83
2023/02/26 03:32:51;;;;;;;1.42;1.30;;;10.80;63.10;;;;;;5043314;28;20045;-96
2023/02/26 03:35:40;;;;;;;1.60;1.50;;;10.80;63.10;;;;;;5058679;28;20037;-85
2023/02/26 03:38:15;;;;;;;1.40;1.30;;;10.80;63.40;;;;;;5012289;28;20555;-92
2023/02/26 03:40:51;;;;;;;1.73;1.25;;;10.80;63.50;;;;;;5022974;28;20030;-85
2023/02/26 03:43:47;;;;;;;1.95;1.58;;;10.80;63.60;;;;;;5022940;28;20135;-86
2023/02/26 03:46:17;;;;;;;1.67;1.58;;;10.80;63.60;;;;;;5003249;28;20463;-83
2023/02/26 03:48:47;;;;;;;1.88;1.40;;;10.90;63.70;;;;;;5025925;28;20038;-85
2023/02/26 03:51:14;;;;;;;2.20;1.75;;;10.90;63.80;;;;;;5022544;28;20041;-85
2023/02/26 03:54:29;;;;;;;1.92;1.70;;;10.90;63.80;;;;;;4985529;28;20475;-87
2023/02/26 03:57:15;;;;;;;1.85;1.67;;;10.90;63.70;;;;;;5007812;28;20454;-83
2023/02/26 04:00:11;;;;;;;1.63;1.52;;;10.90;63.70;;;;;;4997274;28;20057;-85
2023/02/26 04:02:46;;;;;;;2.10;1.63;;;10.90;63.60;;;;;;4995868;28;20032;-83
2023/02/26 04:05:20;;;;;;;1.60;1.50;;;10.90;63.60;;;;;;5016260;28;20061;-85
2023/02/26 04:07:48;;;;;;;2.13;1.92;;;10.90;63.50;;;;;;5014417;28;20101;-86
2023/02/26 04:10:17;;;;;;;2.08;1.60;;;10.90;63.50;;;;;;5027406;28;20183;-87
2023/02/26 04:12:44;;;;;;;1.60;1.50;;;10.90;63.40;;;;;;5027758;28;20049;-85
2023/02/26 04:15:11;;;;;;;2.05;1.80;;;10.90;63.30;;;;;;5017877;28;20026;-85
2023/02/26 04:17:37;;;;;;;1.70;1.60;;;10.90;63.20;;;;;;5017421;28;20036;-86
2023/02/26 04:20:12;;;;;;;1.63;1.52;;;10.90;63.30;;;;;;5021363;28;20336;-86
2023/02/26 04:22:38;;;;;;;1.40;1.30;;;10.90;63.40;;;;;;5009849;28;20041;-86
2023/02/26 04:25:05;;;;;;;2.20;1.95;;;10.90;63.60;;;;;;5021117;28;20716;-86
2023/02/26 04:27:31;;;;;;;1.63;1.50;;;11.00;63.60;;;;;;5008925;28;20101;-88
2023/02/26 04:29:57;;;;;;;2.58;1.60;;;11.00;63.50;;;;;;5020105;28;20057;-87
2023/02/26 04:32:23;;;;;;;1.58;1.48;;;11.00;63.40;;;;;;5028995;28;20040;-88
2023/02/26 04:34:49;;;;;;;1.70;1.60;;;11.00;63.20;;;;;;5018687;28;20178;-89
2023/02/26 04:37:17;;;;;;;2.45;1.48;;;10.90;63.20;;;;;;5034794;28;20034;-88
2023/02/26 04:39:43;;;;;;;1.90;1.80;;;11.00;63.30;;;;;;5017920;28;20037;-89
2023/02/26 04:42:10;;;;;;;1.40;1.30;;;11.00;63.30;;;;;;5065709;28;20034;-90
2023/02/26 04:44:36;;;;;;;1.92;1.75;;;11.00;63.20;;;;;;5063684;28;20033;-88
2023/02/26 04:47:02;;;;;;;1.50;1.40;;;11.00;63.30;;;;;;5066961;28;20059;-86
2023/02/26 04:49:30;;;;;;;2.22;1.80;;;11.00;63.30;;;;;;5014592;28;20081;-87
2023/02/26 04:51:56;;;;;;;1.70;1.60;;;11.00;63.30;;;;;;5033184;28;20049;-89
2023/02/26 04:54:22;;;;;;;2.78;1.90;;;11.00;63.40;;;;;;4999252;28;20034;-88
2023/02/26 04:56:48;;;;;;;1.73;1.63;;;11.00;63.60;;;;;;5010551;28;20063;-87
2023/02/26 04:59:14;;;;;;;1.85;1.75;;;11.10;64.00;;;;;;5022458;28;20054;-86
2023/02/26 05:01:40;;;;;;;2.20;1.83;;;11.00;64.00;;;;;;5007988;28;20198;-79
2023/02/26 05:04:07;;;;;;;1.95;1.67;;;11.10;64.10;;;;;;5018807;28;20064;-87
2023/02/26 05:06:33;;;;;;;2.35;1.98;;;11.10;64.10;;;;;;5053796;28;20042;-89
2023/02/26 05:08:59;;;;;;;1.98;1.75;;;11.10;64.10;;;;;;5023355;28;20086;-87
2023/02/26 05:11:25;;;;;;;2.00;1.80;;;11.10;64.10;;;;;;5024701;28;20038;-87
2023/02/26 05:13:51;;;;;;;2.20;1.83;;;11.10;64.00;;;;;;5021072;28;20026;-83
2023/02/26 05:16:17;;;;;;;2.28;1.70;;;11.10;63.80;;;;;;5021656;28;20116;-81
2023/02/26 05:18:43;;;;;;;2.00;1.80;;;11.10;63.80;;;;;;5019916;28;20589;-84
2023/02/26 05:21:09;;;;;;;3.25;2.05;;;11.10;63.70;;;;;;5004360;28;20034;-90
2023/02/26 05:23:36;;;;;;;2.50;1.92;;;11.10;63.60;;;;;;5023088;28;20171;-87
2023/02/26 05:26:02;;;;;;;1.63;1.50;;;11.10;63.50;;;;;;5053291;28;20133;-88
2023/02/26 05:28:29;;;;;;;1.63;1.52;;;11.20;63.60;;;;;;5019518;28;20468;-88
2023/02/26 05:30:57;;;;;;;1.60;1.50;;;11.20;63.50;;;;;;5003273;28;20038;-91
2023/02/26 05:33:24;;;;;;;2.45;1.70;;;11.10;63.30;;;;;;5017787;28;20574;-86
2023/02/26 05:35:51;;;;;;;2.15;1.60;;;11.20;63.40;;;;;;5026063;28;20127;-86
2023/02/26 05:38:17;;;;;;;1.48;1.38;;;11.20;63.60;;;;;;5019690;28;20037;-89
2023/02/26 05:40:43;;;;;;;1.58;1.15;;;11.20;63.90;;;;;;5021893;28;20030;-90
2023/02/26 05:43:09;;;;;;;1.52;1.13;;;11.20;63.80;;;;;;5022273;28;20045;-93
2023/02/26 05:45:35;;;;;;;1.23;1.13;;;11.20;63.70;;;;;;5021571;28;20191;-93
2023/02/26 05:48:01;;;;;;;1.63;1.25;;;11.20;63.60;;;;;;5022914;28;20034;-83
2023/02/26 05:50:27;;;;;;;1.58;1.15;;;11.20;63.50;;;;;;5022704;28;20045;-93
2023/02/26 05:52:53;;;;;;;1.05;1.00;;;11.30;64.10;;;;;;5004881;28;20025;-89
2023/02/26 05:55:19;;;;;;;1.55;0.90;;;11.20;63.10;;;;;;5019928;28;20042;-80
2023/02/26 05:57:45;;;;;;;1.65;0.90;;;11.20;63.40;;;;;;5019185;28;20512;-78
2023/02/26 06:00:12;;;;;;;2.92;0.93;;;11.30;63.30;;;;;;5018518;28;20034;-81
2023/02/26 06:02:41;;;;;;;0.80;0.70;;;11.30;63.30;;;;;;5003825;28;20033;-75
2023/02/26 06:05:08;;;;;;;2.35;0.63;;;11.30;63.30;;;;;;5034569;28;20386;-77
2023/02/26 06:07:34;;;;;;;0.95;0.88;;;11.30;63.40;;;;;;5051076;28;20481;-77
2023/02/26 06:10:01;;;;;;;1.10;1.00;;;11.30;63.40;;;;;;5019510;28;20152;-75
2023/02/26 06:12:26;;;;;;;1.60;0.90;;;11.30;63.10;;;;;;5018979;28;20042;-78
2023/02/26 06:14:52;;;;;;;1.88;1.00;;;11.30;63.90;;;;;;5018290;28;20037;-77
2023/02/26 06:17:18;;;;;;;0.80;0.80;;;11.40;64.10;;;;;;5019290;28;20134;-77
2023/02/26 06:19:44;;;;;;;3.78;0.65;;;11.40;64.10;;;;;;5016348;28;20037;-75
2023/02/26 06:22:10;;;;;;;1.10;0.70;;;11.40;64.10;;;;;;5020936;28;20029;-75
2023/02/26 06:24:36;;;;;;;0.60;0.60;;;11.40;64.20;;;;;;5019411;28;20103;-76
2023/02/26 06:27:02;;;;;;;1.48;0.65;;;11.50;64.20;;;;;;5019581;28;20127;-77
2023/02/26 06:29:28;;;;;;;0.50;0.50;;;11.40;64.00;;;;;;5017814;28;20289;-76
2023/02/26 06:31:54;;;;;;;1.10;0.60;;;11.50;63.80;;;;;;5018736;28;20048;-76
2023/02/26 06:34:21;;;;;;;1.73;0.73;;;11.50;63.70;;;;;;5016522;28;20042;-76
2023/02/26 06:36:47;;;;;;;1.95;0.68;;;11.50;63.50;;;;;;5019438;28;20034;-77
2023/02/26 06:39:13;;;;;;;0.80;0.35;;;11.50;63.40;;;;;;5018122;28;20044;-78
2023/02/26 06:41:39;;;;;;;1.42;0.55;;;11.50;63.40;;;;;;5013622;28;20389;-77
2023/02/26 06:44:05;;;;;;;0.47;0.47;;;11.50;63.20;;;;;;5021343;28;20033;-76
2023/02/26 06:46:31;;;;;;;0.93;0.65;;;11.50;63.30;;;;;;5017849;28;20058;-88
2023/02/26 06:48:57;;;;;;;0.70;0.52;;;11.60;63.10;;;;;;5050167;28;20030;-87
2023/02/26 06:51:23;;;;;;;2.78;0.70;;;11.60;63.00;;;;;;5019379;28;20121;-87
2023/02/26 06:53:49;;;;;;;0.77;0.70;;;11.60;63.00;;;;;;5017703;28;20025;-86
2023/02/26 06:56:15;;;;;;;0.50;0.50;;;11.70;63.10;;;;;;5027933;28;20037;-84
2023/02/26 06:58:41;;;;;;;0.60;0.50;;;11.70;63.30;;;;;;5024772;28;20780;-86
2023/02/26 07:01:06;;;;;;;2.58;0.60;;;11.70;63.20;;;;;;5018871;28;20073;-82
2023/02/26 07:03:32;;;;;;;0.52;0.52;;;11.70;63.10;;;;;;5022465;28;20034;-77
2023/02/26 07:05:58;;;;;;;2.45;0.65;;;11.80;63.10;;;;;;5030772;28;20136;-78
2023/02/26 07:08:24;;;;;;;0.70;0.52;;;11.70;62.90;;;;;;5027476;28;20048;-77
2023/02/26 07:10:50;;;;;;;2.70;1.17;;;11.80;63.00;;;;;;5031735;28;20389;-76
2023/02/26 07:13:17;;;;;;;1.27;1.10;;;11.70;63.30;;;;;;5035129;28;20292;-77
2023/02/26 07:15:43;;;;;;;1.35;1.10;;;11.60;61.20;;;;;;5023253;28;20030;-77
2023/02/26 07:18:09;;;;;;;1.15;1.05;;;11.50;60.40;;;;;;5031432;28;20049;-77
2023/02/26 07:20:35;;;;;;;1.20;1.10;;;11.30;60.10;;;;;;5024548;28;20033;-79
2023/02/26 07:23:01;;;;;;;2.85;1.00;;;11.10;60.10;;;;;;5021952;28;20696;-77
2023/02/26 07:25:27;;;;;;;2.45;1.20;;;11.10;64.20;;;;;;5019069;28;20129;-76
2023/02/26 07:27:53;;;;;;;2.67;1.35;;;11.10;63.50;;;;;;5020533;28;20084;-83
2023/02/26 07:30:19;;;;;;;3.22;1.35;;;11.00;61.70;;;;;;5018604;28;20030;-89
2023/02/26 07:32:45;;;;;;;1.40;1.30;;;10.80;61.40;;;;;;5018758;28;20084;-82
2023/02/26 07:35:11;;;;;;;2.20;1.30;;;10.70;61.30;;;;;;5017970;28;20497;-77
2023/02/26 07:37:37;;;;;;;1.45;1.17;;;10.60;62.10;;;;;;5021283;28;20032;-79
2023/02/26 07:40:04;;;;;;;1.50;1.40;;;10.50;61.50;;;;;;5017693;28;20060;-80
2023/02/26 07:42:30;;;;;;;1.98;1.45;;;10.30;61.90;;;;;;5051102;28;20520;-77
2023/02/26 07:44:58;;;;;;;1.60;1.40;;;10.20;60.70;;;;;;5018540;28;20990;-76
2023/02/26 07:47:24;;;;;;;1.60;1.50;;;10.20;61.70;;;;;;5019123;28;20176;-80
2023/02/26 07:49:50;;;;;;;3.00;1.50;;;10.10;62.00;;;;;;5021532;28;20033;-84
2023/02/26 07:52:16;;;;;;;2.25;1.80;;;10.00;62.00;;;;;;5024397;28;20436;-72
2023/02/26 07:54:42;;;;;;;3.20;1.50;;;10.10;65.40;;;;;;5021709;28;20106;-78
2023/02/26 07:57:07;;;;;;;3.53;1.55;;;10.10;66.30;;;;;;5021087;28;20476;-78
2023/02/26 07:59:33;;;;;;;1.77;1.52;;;10.10;64.50;;;;;;5006393;28;20033;-79
2023/02/26 08:02:00;;;;;;;2.45;1.30;;;10.10;63.40;;;;;;5021614;28;20381;-80
2023/02/26 08:04:25;;;;;;;1.55;1.40;;;10.00;63.30;;;;;;5021514;28;20041;-79
2023/02/26 08:06:53;;;;;;;2.60;1.50;;;10.10;64.40;;;;;;5020123;28;20034;-79
2023/02/26 08:09:20;;;;;;;1.40;1.30;;;10.10;64.70;;;;;;5013335;28;20057;-76
2023/02/26 08:11:46;;;;;;;2.03;1.40;;;10.10;64.10;;;;;;5017495;28;20033;-77
2023/02/26 08:14:12;;;;;;;1.40;1.40;;;10.10;63.90;;;;;;4987274;28;20120;-74
2023/02/26 08:16:38;;;;;;;3.95;1.40;;;10.10;63.30;;;;;;5007545;28;20052;-75
2023/02/26 08:19:04;;;;;;;1.40;1.30;;;10.00;62.50;;;;;;5019011;28;21154;-78
2023/02/26 08:21:30;;;;;;;1.83;1.42;;;10.00;62.50;;;;;;5017769;28;20033;-71
2023/02/26 08:23:56;;;;;;;1.50;1.40;;;9.90;62.10;;;;;;5019838;28;20029;-79
2023/02/26 08:26:22;;;;;;;1.50;1.40;;;9.90;62.00;;;;;;5005899;28;20033;-78
2023/02/26 08:28:48;;;;;;;9.07;1.60;;;9.90;61.60;;;;;;5024439;28;20121;-74
2023/02/26 08:31:15;;;;;;;1.45;1.35;;;9.80;61.60;;;;;;5018945;28;20412;-76
2023/02/26 08:33:41;;;;;;;1.85;1.70;;;9.80;61.70;;;;;;5019714;28;20085;-76
2023/02/26 08:36:07;;;;;;;1.80;1.42;;;9.80;62.10;;;;;;4988771;28;20044;-76
2023/02/26 08:38:33;;;;;;;1.95;1.75;;;9.80;62.20;;;;;;5018694;28;20432;-76
2023/02/26 08:41:00;;;;;;;2.10;1.27;;;9.70;62.30;;;;;;5020484;28;20404;-76
2023/02/26 08:43:26;;;;;;;1.55;1.45;;;9.80;62.10;;;;;;5019449;28;20473;-74
2023/02/26 08:45:53;;;;;;;1.30;1.17;;;9.70;62.20;;;;;;5020803;28;20133;-74
2023/02/26 08:48:19;;;;;;;1.77;1.40;;;9.70;62.10;;;;;;5020571;28;20443;-75
2023/02/26 08:50:46;;;;;;;0.95;0.85;;;9.70;62.10;;;;;;4989464;28;20041;-75
2023/02/26 08:53:12;;;;;;;1.33;1.00;;;9.70;61.70;;;;;;5020540;28;20032;-74
2023/02/26 08:55:38;;;;;;;4.00;1.30;;;9.70;61.60;;;;;;5018427;28;20065;-74
2023/02/26 08:58:03;;;;;;;1.40;1.10;;;9.70;61.40;;;;;;5018327;28;20042;-74
2023/02/26 09:00:30;;;;;;;1.38;0.93;;;9.70;61.70;;;;;;5017912;28;20034;-74
2023/02/26 09:02:56;;;;;;;1.27;1.15;;;9.70;62.10;;;;;;5018156;28;20578;-74
2023/02/26 09:05:22;;;;;;;1.55;0.90;;;9.70;62.90;;;;;;5021644;28;20116;-74
2023/02/26 09:07:48;;;;;;;0.95;0.90;;;9.70;62.70;;;;;;5033312;28;20048;-77
2023/02/26 09:10:15;;;;;;;0.80;0.80;;;9.70;62.70;;;;;;5016551;28;20041;-78
2023/02/26 09:12:41;;;;;;;0.90;0.80;;;9.70;62.40;;;;;;5021298;28;20452;-76
2023/02/26 09:15:09;;;;;;;1.02;0.93;;;9.70;62.20;;;;;;5017793;28;20130;-77
2023/02/26 09:17:38;;;;;;;0.80;0.80;;;9.70;61.70;;;;;;5018849;28;20095;-78
2023/02/26 09:20:04;;;;;;;0.60;0.60;;;9.60;61.70;;;;;;5019319;28;20061;-77
2023/02/26 09:22:30;;;;;;;1.17;0.70;;;9.60;61.30;;;;;;5019190;28;20049;-78
2023/02/26 09:24:56;;;;;;;1.23;0.77;;;9.50;61.60;;;;;;5020494;28;20040;-87
2023/02/26 09:27:22;;;;;;;1.75;0.80;;;9.50;61.80;;;;;;5002959;28;20041;-81
2023/02/26 09:29:50;;;;;;;1.63;0.90;;;9.50;61.50;;;;;;5019400;28;20521;-86
2023/02/26 09:32:15;;;;;;;1.15;0.90;;;9.40;61.20;;;;;;5002615;28;20056;-81
2023/02/26 09:34:41;;;;;;;2.80;0.75;;;9.40;61.10;;;;;;5020218;28;20037;-78
2023/02/26 09:37:08;;;;;;;0.80;0.80;;;9.40;60.90;;;;;;5017062;28;20037;-81
2023/02/26 09:39:35;;;;;;;1.05;0.75;;;9.40;60.90;;;;;;5021325;28;20107;-86
2023/02/26 09:42:48;;;;;;;1.25;0.80;;;9.40;60.70;;;;;;5019345;28;20030;-82
2023/02/26 09:45:36;;;;;;;10.38;0.82;;;9.40;60.50;;;;;;4983901;28;20037;-82
2023/02/26 09:48:05;;;;;;;0.98;0.70;;;9.50;65.00;;;;;;5002568;28;20053;-80
2023/02/26 09:50:46;;;;;;;1.73;0.50;;;9.70;65.30;;;;;;5014374;28;20095;-82
2023/02/26 09:53:37;;;;;;;2.25;0.60;;;9.80;65.40;;;;;;5004417;28;20033;-86
2023/02/26 09:56:16;;;;;;;0.60;0.60;;;9.90;65.50;;;;;;5015522;28;20034;-81
2023/02/26 09:58:44;;;;;;;0.70;0.50;;;10.10;65.40;;;;;;5015669;28;20140;-82
2023/02/26 10:01:28;;;;;;;0.82;0.50;;;10.20;65.30;;;;;;5014973;28;20584;-85
2023/02/26 10:04:20;;;;;;;0.75;0.50;;;10.30;65.00;;;;;;5014988;28;20033;-72
2023/02/26 10:07:03;;;;;;;1.83;0.80;;;10.30;65.50;;;;;;5015943;28;20079;-80
2023/02/26 10:09:47;;;;;;;3.38;0.52;;;10.50;68.80;;;;;;5016525;28;20435;-74
2023/02/26 10:12:21;;;;;;;4.78;0.70;;;10.60;67.70;;;;;;5015411;28;20045;-72
2023/02/26 10:15:01;;;;;;;2.78;0.70;;;10.70;70.20;;;;;;5016358;28;20578;-73
2023/02/26 10:18:04;;;;;;;2.72;0.60;;;10.80;68.40;;;;;;5013994;28;20044;-74
2023/02/26 10:20:58;;;;;;;1.42;0.75;;;10.90;67.50;;;;;;5015105;28;20421;-75
2023/02/26 10:23:35;;;;;;;2.13;0.70;;;10.90;67.10;;;;;;5032852;28;20061;-74
2023/02/26 10:26:24;;;;;;;2.72;0.80;;;10.90;66.50;;;;;;5013929;28;20135;-74
2023/02/26 10:29:10;;;;;;;1.27;0.47;;;11.00;66.10;;;;;;5018512;28;20492;-77
2023/02/26 10:31:57;;;;;;;1.80;0.60;;;11.10;65.80;;;;;;5017261;28;20033;-75
2023/02/26 10:34:35;;;;;;;1.25;0.55;;;11.10;65.50;;;;;;5016952;28;20037;-75
2023/02/26 10:37:20;;;;;;;4.97;0.70;;;11.20;65.40;;;;;;5016201;28;20492;-75
2023/02/26 10:39:56;;;;;;;2.85;0.70;;;11.20;65.10;;;;;;5018472;28;20586;-74
2023/02/26 10:42:27;;;;;;;0.52;0.52;;;11.20;65.00;;;;;;5016227;28;20654;-74
2023/02/26 10:45:23;;;;;;;1.27;0.65;;;11.30;65.50;;;;;;5023965;28;20392;-74
2023/02/26 10:48:16;;;;;;;3.92;0.73;;;11.30;64.80;;;;;;5020268;28;20807;-74
2023/02/26 10:50:52;;;;;;;2.28;0.95;;;11.30;64.90;;;;;;5011847;28;20060;-74
2023/02/26 10:53:20;;;;;;;4.05;0.88;;;11.40;64.90;;;;;;5020237;28;20172;-74
2023/02/26 10:55:54;;;;;;;3.22;0.85;;;11.40;65.00;;;;;;5017439;28;20025;-75
2023/02/26 10:58:24;;;;;;;1.33;0.77;;;11.50;65.10;;;;;;5017927;28;20034;-74
2023/02/26 11:00:53;;;;;;;2.67;1.08;;;11.50;65.20;;;;;;5031277;28;20408;-73
2023/02/26 11:03:32;;;;;;;4.65;0.70;;;11.60;68.00;;;;;;5016859;28;20048;-72
2023/02/26 11:05:58;;;;;;;2.58;0.80;;;11.60;67.90;;;;;;5016757;28;20034;-73
2023/02/26 11:08:32;;;;;;;1.52;0.77;;;11.60;67.50;;;;;;5016240;28;20526;-72
2023/02/26 11:11:01;;;;;;;4.78;1.27;;;11.70;67.10;;;;;;5014315;28;20030;-76
2023/02/26 11:13:30;;;;;;;4.63;0.73;;;11.70;66.70;;;;;;5029485;28;20110;-76
2023/02/26 11:16:01;;;;;;;2.17;0.90;;;11.70;66.60;;;;;;5019594;28;20044;-77
2023/02/26 11:19:00;;;;;;;1.65;0.60;;;11.80;66.60;;;;;;5024698;28;20409;-76
2023/02/26 11:21:32;;;;;;;1.77;1.15;;;11.80;66.40;;;;;;4994638;28;20029;-76
2023/02/26 11:24:03;;;;;;;1.35;0.80;;;11.80;66.40;;;;;;5006432;28;20659;-76
2023/02/26 11:26:36;;;;;;;1.80;1.10;;;11.90;66.30;;;;;;4992006;28;20052;-77
2023/02/26 11:29:03;;;;;;;2.05;0.50;;;11.90;66.20;;;;;;5002845;28;20217;-78
2023/02/26 11:31:29;;;;;;;1.48;0.65;;;11.90;66.00;;;;;;4987728;28;20133;-79
2023/02/26 11:34:07;;;;;;;2.45;0.90;;;11.90;65.80;;;;;;5004017;28;20850;-75
2023/02/26 11:36:38;;;;;;;3.33;0.90;;;11.90;65.60;;;;;;5005080;28;20030;-73
2023/02/26 11:39:18;;;;;;;2.50;0.88;;;12.00;65.60;;;;;;5004594;28;20866;-76
2023/02/26 11:41:46;;;;;;;3.70;0.98;;;12.00;65.40;;;;;;4989598;28;20056;-81
2023/02/26 11:44:40;;;;;;;4.00;0.60;;;12.00;65.40;;;;;;5017355;28;20240;-78
2023/02/26 11:47:11;;;;;;;4.00;0.70;;;12.00;65.20;;;;;;5003214;28;20112;-76
2023/02/26 11:49:48;;;;;;;1.77;0.80;;;12.00;65.20;;;;;;5004857;28;20153;-76
2023/02/26 11:52:22;;;;;;;1.67;0.77;;;12.00;65.10;;;;;;5008208;28;20030;-76
2023/02/26 11:54:53;;;;;;;2.28;0.88;;;12.00;65.10;;;;;;5006452;28;20037;-74
2023/02/26 11:57:24;;;;;;;2.97;0.90;;;12.10;65.00;;;;;;5025182;28;20084;-75
2023/02/26 11:59:53;;;;;;;8.02;1.20;;;12.10;65.00;;;;;;5021314;28;20033;-74
2023/02/26 12:02:26;;;;;;;0.88;0.80;;;12.10;65.00;;;;;;5021099;28;20523;-72
2023/02/26 12:04:56;;;;;;;1.80;0.70;;;12.20;65.10;;;;;;5020870;28;20034;-73
2023/02/26 12:07:22;;;;;;;1.88;0.90;;;12.10;64.90;;;;;;5018742;28;20587;-71
2023/02/26 12:09:49;;;;;;;1.10;0.75;;;12.10;64.90;;;;;;5022051;28;20042;-72
2023/02/26 12:12:29;;;;;;;2.88;1.13;;;12.20;64.90;;;;;;5018937;28;20033;-73
2023/02/26 12:15:26;;;;;;;6.05;0.80;;;12.20;64.80;;;;;;5020090;28;20121;-72
2023/02/26 12:17:58;;;;;;;2.55;0.70;;;12.20;64.70;;;;;;5023295;28;20030;-73
2023/02/26 12:20:41;;;;;;;0.93;0.70;;;12.20;64.70;;;;;;5017459;28;20068;-72
2023/02/26 12:23:16;;;;;;;0.95;0.60;;;12.20;64.60;;;;;;5019952;28;20405;-72
2023/02/26 12:26:04;;;;;;;1.23;0.80;;;12.20;64.60;;;;;;5017857;28;20247;-73
2023/02/26 12:28:55;;;;;;;2.05;1.13;;;12.20;65.10;;;;;;5020366;28;20046;-74
2023/02/26 12:31:24;;;;;;;2.83;0.88;;;12.30;75.80;;;;;;5019731;28;20084;-74
2023/02/26 12:34:27;;;;;;;4.30;1.30;;;12.40;71.30;;;;;;5018810;28;20034;-73
2023/02/26 12:37:29;;;;;;;4.03;1.10;;;12.40;69.90;;;;;;5020412;28;20703;-73
2023/02/26 12:40:03;;;;;;;3.97;1.15;;;12.40;67.20;;;;;;5020395;28;20057;-73
2023/02/26 12:42:52;;;;;;;2.55;1.15;;;12.40;66.00;;;;;;5017868;28;20037;-73
2023/02/26 12:45:30;;;;;;;2.35;1.10;;;12.40;65.60;;;;;;5019609;28;20892;-73
2023/02/26 12:48:44;;;;;;;1.55;0.95;;;12.40;65.10;;;;;;5017728;28;20124;-72
2023/02/26 12:51:09;;;;;;;1.58;0.93;;;12.40;64.80;;;;;;5019158;28;20037;-72
2023/02/26 12:54:00;;;;;;;2.30;1.20;;;12.30;64.50;;;;;;5020137;28;20566;-73
2023/02/26 12:56:41;;;;;;;2.42;1.27;;;12.30;64.30;;;;;;5020248;28;20022;-72
2023/02/26 12:59:41;;;;;;;1.20;1.10;;;12.30;64.10;;;;;;5021471;28;20037;-72
2023/02/26 13:02:25;;;;;;;1.45;1.23;;;12.30;63.90;;;;;;5019062;28;20443;-72
2023/02/26 13:05:10;;;;;;;1.65;1.23;;;12.20;63.80;;;;;;5019615;28;20037;-73
2023/02/26 13:07:57;;;;;;;3.70;1.50;;;12.20;63.60;;;;;;5043841;28;20077;-73
2023/02/26 13:10:38;;;;;;;1.40;1.30;;;12.20;63.50;;;;;;5026406;28;20034;-74
2023/02/26 13:13:26;;;;;;;3.63;1.23;;;12.10;63.50;;;;;;5022956;28;20044;-73
2023/02/26 13:16:14;;;;;;;2.60;1.60;;;12.10;63.40;;;;;;5050041;28;20065;-74
2023/02/26 13:18:46;;;;;;;3.28;1.42;;;12.10;63.30;;;;;;5021204;28;20037;-72